Time;durP1;ratioP1;P1;durP2;ratioP2;P2;SDS_P1;SDS_P2;PMS_P1;PMS_P2;Temp;Humidity;BMP_temperature;BMP_pressure;BME280_temperature;BME280_humidity;BME280_pressure;Samples;Min_cycle;Max_cycle;Signal;HPM_P1;HPM_P2
2022/09/12 00:01:08;;;;;;;3.65;3.30;;;;;;;11.19;79.88;99997.23;3383053;81;20995;-84
2022/09/12 00:06:00;;;;;;;6.03;2.85;;;;;;;11.18;79.88;100002.87;3412613;82;20959;-84
2022/09/12 00:10:51;;;;;;;5.20;2.90;;;;;;;11.17;79.83;100002.42;3339728;81;20941;-84
2022/09/12 00:15:43;;;;;;;6.00;3.27;;;;;;;11.18;79.80;100003.31;3350125;81;20982;-84
2022/09/12 00:20:34;;;;;;;6.03;3.30;;;;;;;11.16;79.81;100008.92;3385208;79;21947;-84
2022/09/12 00:25:29;;;;;;;6.12;3.58;;;;;;;11.16;79.87;100003.71;3384480;80;21512;-84
2022/09/12 00:30:19;;;;;;;5.65;3.15;;;;;;;11.16;79.71;100006.31;3369810;81;20953;-84
2022/09/12 00:35:10;;;;;;;5.35;3.00;;;;;;;11.11;79.78;99996.36;3420438;81;21632;-84
2022/09/12 00:40:02;;;;;;;5.00;2.83;;;;;;;11.15;79.71;100007.20;3430277;80;21001;-84
2022/09/12 00:44:53;;;;;;;3.62;2.83;;;;;;;11.15;79.73;100004.16;3377508;81;21168;-84
2022/09/12 00:49:53;;;;;;;4.53;2.77;;;;;;;11.17;79.76;99998.96;3419836;81;20983;-84
2022/09/12 00:54:58;;;;;;;3.05;2.72;;;;;;;11.17;79.51;100002.86;3386530;80;20963;-84
2022/09/12 00:59:55;;;;;;;3.12;2.83;;;;;;;11.18;79.50;100012.42;3408411;81;20971;-84
2022/09/12 01:04:46;;;;;;;4.20;2.90;;;;;;;11.21;79.46;100015.01;3364542;83;20912;-84
2022/09/12 01:09:41;;;;;;;4.65;3.10;;;;;;;11.18;79.41;100012.42;3298213;83;21092;-84
2022/09/12 01:14:32;;;;;;;3.25;2.65;;;;;;;11.20;79.27;100021.09;3392897;83;21422;-84
2022/09/12 01:19:51;;;;;;;3.25;2.50;;;;;;;11.16;78.93;100019.33;3299119;83;20998;-84
2022/09/12 01:25:02;;;;;;;4.83;3.00;;;;;;;11.13;79.24;100016.73;3372435;83;21578;-84
2022/09/12 01:30:25;;;;;;;4.62;3.05;;;;;;;11.16;79.34;100024.53;3361165;83;21624;-84
2022/09/12 01:35:56;;;;;;;5.92;3.40;;;;;;;11.08;79.42;100021.05;3365574;83;22222;-84
2022/09/12 01:41:16;;;;;;;4.50;3.27;;;;;;;11.08;79.42;100021.05;3325379;83;21105;-84
2022/09/12 01:46:36;;;;;;;5.40;2.83;;;;;;;11.11;79.23;100038.84;3380765;83;21039;-84
2022/09/12 01:51:42;;;;;;;4.37;2.75;;;;;;;11.11;79.32;100036.68;3271072;84;20990;-84
2022/09/12 01:56:37;;;;;;;5.20;3.45;;;;;;;11.06;79.32;100037.95;3270278;84;21588;-84
2022/09/12 02:01:33;;;;;;;3.65;2.98;;;;;;;11.02;79.30;100042.27;3258585;85;21908;-84
2022/09/12 02:06:32;;;;;;;3.95;3.10;;;;;;;11.02;79.30;100042.27;3306212;85;20940;-84
2022/09/12 02:11:23;;;;;;;4.45;3.55;;;;;;;11.03;79.33;100046.59;3325907;83;20994;-84
2022/09/12 02:16:32;;;;;;;3.27;2.80;;;;;;;11.00;79.40;100038.80;3294123;85;21606;-84
2022/09/12 02:21:27;;;;;;;3.12;2.52;;;;;;;10.97;79.26;100037.47;3327377;85;20987;-84
2022/09/12 02:26:24;;;;;;;3.25;2.62;;;;;;;10.94;79.37;100043.95;3371196;80;20959;-84
2022/09/12 02:31:28;;;;;;;4.20;2.77;;;;;;;10.93;79.39;100042.23;3430555;80;21533;-84
2022/09/12 02:36:56;;;;;;;6.75;3.20;;;;;;;10.92;79.27;100040.92;3407360;81;20975;-84
2022/09/12 02:41:53;;;;;;;;;;;;;;;10.88;79.23;100048.70;3423006;81;21002;-84
2022/09/12 02:46:49;;;;;;;5.90;3.10;;;;;;;10.90;79.44;100040.05;3434617;80;20128;-84
2022/09/12 02:51:42;;;;;;;5.20;3.27;;;;;;;10.87;79.29;100046.98;3402823;80;21032;-84
2022/09/12 02:56:34;;;;;;;4.30;2.90;;;;;;;10.85;79.34;100058.22;3425635;81;20960;-84
2022/09/12 03:02:06;;;;;;;3.90;2.83;;;;;;;10.81;79.44;100064.27;3366628;82;21391;-84
2022/09/12 03:07:18;;;;;;;4.67;3.30;;;;;;;10.83;79.53;100065.14;3426343;81;20947;-84
2022/09/12 03:12:42;;;;;;;4.70;2.85;;;;;;;10.82;79.55;100067.30;3427248;80;21467;-84
2022/09/12 03:17:45;;;;;;;6.35;3.55;;;;;;;10.79;79.38;100075.09;3436554;81;21150;-83
2022/09/12 03:22:52;;;;;;;4.08;2.72;;;;;;;10.79;79.45;100067.30;3426769;81;21129;-83
2022/09/12 03:27:49;;;;;;;4.67;2.72;;;;;;;10.77;79.42;100072.92;3268449;85;21062;-83
2022/09/12 03:32:47;;;;;;;6.63;2.77;;;;;;;10.77;79.48;100080.73;3292280;85;21593;-83
2022/09/12 03:37:38;;;;;;;6.22;3.47;;;;;;;10.76;79.58;100086.34;3215178;86;21382;-83
2022/09/12 03:42:30;;;;;;;5.78;3.33;;;;;;;10.79;79.55;100088.10;3251037;85;21156;-83
2022/09/12 03:47:21;;;;;;;3.95;2.87;;;;;;;10.79;79.56;100091.56;3228399;86;21283;-83
2022/09/12 03:52:12;;;;;;;3.12;2.80;;;;;;;10.83;79.59;100098.95;3253626;86;21008;-83
2022/09/12 03:57:03;;;;;;;5.55;2.60;;;;;;;10.85;79.48;100099.83;3242850;86;20988;-83
2022/09/12 04:01:55;;;;;;;3.08;2.77;;;;;;;10.88;79.58;100110.25;3233343;81;21002;-82
2022/09/12 04:06:46;;;;;;;6.17;2.75;;;;;;;10.90;79.47;100106.37;3326245;83;21192;-83
2022/09/12 04:11:37;;;;;;;4.25;2.55;;;;;;;10.92;79.47;100103.34;3387226;82;21019;-83
2022/09/12 04:16:28;;;;;;;6.70;3.33;;;;;;;10.93;79.51;100104.66;3346655;83;21033;-83
2022/09/12 04:21:21;;;;;;;7.28;4.28;;;;;;;10.94;79.39;100115.48;3378477;83;20946;-83
2022/09/12 04:26:14;;;;;;;3.92;3.33;;;;;;;10.95;79.59;100112.47;3362133;83;21003;-83
2022/09/12 04:31:14;;;;;;;5.58;4.45;;;;;;;10.97;79.92;100116.80;3334842;83;21396;-84
2022/09/12 04:36:11;;;;;;;4.10;3.10;;;;;;;10.92;80.22;100115.91;3395843;82;21020;-82
2022/09/12 04:41:25;;;;;;;5.80;3.20;;;;;;;10.91;80.46;100131.09;3336843;83;20961;-83
2022/09/12 04:46:21;;;;;;;5.30;3.47;;;;;;;10.88;80.61;100133.66;3356421;82;20961;-83
2022/09/12 04:51:16;;;;;;;7.70;4.15;;;;;;;10.85;81.01;100141.00;3335333;81;21000;-82
2022/09/12 04:56:11;;;;;;;7.87;4.10;;;;;;;10.83;81.04;100137.95;3325680;83;21566;-83
2022/09/12 05:01:09;;;;;;;5.80;4.80;;;;;;;10.83;81.20;100144.46;3374774;83;21300;-83
2022/09/12 05:06:06;;;;;;;8.40;5.30;;;;;;;10.83;81.35;100147.92;3378605;82;21500;-83
2022/09/12 05:11:03;;;;;;;7.50;5.67;;;;;;;10.82;81.44;100156.60;3308931;82;20995;-84
2022/09/12 05:15:57;;;;;;;8.53;5.42;;;;;;;10.81;82.14;100152.69;3379125;82;21409;-85
2022/09/12 05:20:48;;;;;;;8.48;6.78;;;;;;;10.75;82.06;100164.33;3338271;83;21466;-84
2022/09/12 05:25:39;;;;;;;7.35;6.67;;;;;;;10.71;82.21;100159.97;3331666;83;21022;-84
2022/09/12 05:30:30;;;;;;;8.70;7.00;;;;;;;10.72;82.45;100163.89;3316183;83;21482;-85
2022/09/12 05:35:21;;;;;;;10.58;8.48;;;;;;;10.73;82.54;100171.25;3295566;83;21150;-84
2022/09/12 05:40:16;;;;;;;9.78;7.35;;;;;;;10.71;82.64;100172.53;3364587;83;20988;-84
2022/09/12 05:45:07;;;;;;;14.38;8.75;;;;;;;10.71;82.86;100172.97;3376893;83;21098;-83
2022/09/12 05:49:58;;;;;;;11.43;9.18;;;;;;;10.72;82.86;100182.53;3353830;82;21050;-85
2022/09/12 05:54:50;;;;;;;11.80;8.83;;;;;;;10.74;82.90;100178.20;3392529;83;22194;-84
2022/09/12 05:59:42;;;;;;;8.53;7.70;;;;;;;10.77;82.92;100180.40;3357956;83;21015;-85
2022/09/12 06:04:33;;;;;;;9.38;8.08;;;;;;;10.76;82.86;100177.78;3367178;82;21254;-85
2022/09/12 06:09:24;;;;;;;10.00;8.20;;;;;;;10.86;83.09;100171.80;3420017;80;21080;-84
2022/09/12 06:14:17;;;;;;;8.58;7.05;;;;;;;10.91;83.01;100179.61;3431261;80;20999;-84
2022/09/12 06:19:15;;;;;;;7.92;6.72;;;;;;;10.98;83.04;100174.48;3493407;80;20978;-85
2022/09/12 06:24:07;;;;;;;7.25;6.55;;;;;;;11.03;83.10;100171.45;3465727;81;20919;-85
2022/09/12 06:29:00;;;;;;;7.00;6.30;;;;;;;11.11;83.12;100175.87;3372934;81;21077;-85
2022/09/12 06:33:54;;;;;;;7.97;7.10;;;;;;;11.10;82.94;100180.62;3415472;80;21739;-84
2022/09/12 06:38:45;;;;;;;9.28;5.97;;;;;;;11.09;82.94;100184.95;3367151;80;21544;-84
2022/09/12 06:43:37;;;;;;;5.75;5.25;;;;;;;11.09;83.01;100189.27;3408809;81;20999;-84
2022/09/12 06:48:28;;;;;;;6.78;6.08;;;;;;;11.14;82.95;100194.97;3417318;80;20946;-85
2022/09/12 06:53:19;;;;;;;6.00;4.87;;;;;;;11.17;83.12;100190.20;3465962;80;20871;-84
2022/09/12 06:58:10;;;;;;;7.50;6.15;;;;;;;11.20;83.02;100198.03;3427429;80;21423;-84
2022/09/12 07:03:01;;;;;;;7.10;4.97;;;;;;;11.30;83.04;100194.60;3411269;79;20992;-84
2022/09/12 07:07:52;;;;;;;6.75;5.40;;;;;;;11.38;82.88;100200.73;3469139;80;20991;-84
2022/09/12 07:12:44;;;;;;;5.78;4.12;;;;;;;11.37;82.79;100209.39;3479605;81;21604;-84
2022/09/12 07:17:35;;;;;;;6.20;5.30;;;;;;;11.47;82.81;100201.66;3476781;80;21234;-84
2022/09/12 07:22:25;;;;;;;4.80;4.23;;;;;;;11.59;82.91;100214.73;3457545;82;21021;-84
2022/09/12 07:27:16;;;;;;;5.08;4.58;;;;;;;11.60;82.75;100219.92;3405761;81;21225;-84
2022/09/12 07:32:08;;;;;;;6.87;4.80;;;;;;;11.63;82.89;100225.16;3417168;81;20976;-84
2022/09/12 07:36:59;;;;;;;6.25;5.75;;;;;;;11.72;82.72;100229.54;3409140;80;21056;-87
2022/09/12 07:41:50;;;;;;;6.55;5.28;;;;;;;11.77;82.81;100229.58;3422318;80;20995;-86
2022/09/12 07:46:44;;;;;;;7.22;5.50;;;;;;;11.82;82.77;100239.14;3401171;81;21564;-88
2022/09/12 07:51:35;;;;;;;5.95;5.40;;;;;;;11.93;82.72;100240.52;3439719;80;21003;-87
2022/09/12 07:56:27;;;;;;;5.00;4.35;;;;;;;12.01;82.67;100244.45;3403794;82;21853;-85
2022/09/12 08:01:22;;;;;;;5.35;4.85;;;;;;;12.06;82.59;100251.86;3384223;82;21269;-86
2022/09/12 08:06:20;;;;;;;5.65;4.12;;;;;;;12.06;82.34;100257.06;3366871;83;20995;-88
2022/09/12 08:11:14;;;;;;;5.20;4.70;;;;;;;12.00;82.51;100259.62;3327861;82;22004;-93
2022/09/12 08:16:16;;;;;;;7.05;4.47;;;;;;;11.94;82.15;100267.44;3389842;82;21003;-92
2022/09/12 08:21:13;;;;;;;6.22;4.55;;;;;;;11.96;82.54;100264.40;3368047;82;20955;-90
2022/09/12 08:26:05;;;;;;;4.93;4.50;;;;;;;12.09;82.22;100265.31;3406324;82;21062;-93
2022/09/12 08:31:13;;;;;;;7.12;5.45;;;;;;;12.26;82.27;100257.56;3376765;82;20924;-90
2022/09/12 08:36:09;;;;;;;6.97;4.97;;;;;;;12.35;82.27;100264.09;3459387;82;21449;-89
2022/09/12 08:41:12;;;;;;;6.08;5.40;;;;;;;12.46;81.82;100259.77;3392651;82;21447;-91
2022/09/12 08:46:16;;;;;;;6.03;4.95;;;;;;;12.67;81.51;100264.59;3363708;82;21440;-90
2022/09/12 08:51:11;;;;;;;6.03;5.30;;;;;;;12.76;81.32;100268.07;3306586;82;20983;-89
2022/09/12 08:56:07;;;;;;;4.75;4.25;;;;;;;12.84;81.63;100265.90;3363865;82;20924;-91
2022/09/12 09:01:18;;;;;;;6.37;4.67;;;;;;;13.00;81.47;100265.47;3370774;82;21149;-89
2022/09/12 09:06:15;;;;;;;6.87;4.92;;;;;;;13.01;80.89;100257.65;3425701;81;21021;-88
2022/09/12 09:11:47;;;;;;;5.33;4.83;;;;;;;13.27;80.51;100265.47;3474546;80;21101;-84
2022/09/12 09:16:45;;;;;;;5.83;5.20;;;;;;;13.53;80.45;100264.58;3302879;85;21247;-85
2022/09/12 09:21:50;;;;;;;7.62;6.08;;;;;;;14.02;79.37;100264.42;3279302;85;21018;-84
2022/09/12 09:26:50;;;;;;;5.25;4.75;;;;;;;13.87;79.56;100274.92;3262145;84;21505;-89
2022/09/12 09:31:47;;;;;;;6.83;6.20;;;;;;;13.83;79.03;100271.45;3264489;84;21468;-92
2022/09/12 09:37:16;;;;;;;7.87;4.47;;;;;;;14.03;78.83;100278.34;3276138;85;20967;-92
2022/09/12 09:42:30;;;;;;;4.70;4.20;;;;;;;13.86;78.85;100278.40;3272458;85;21029;-92
2022/09/12 09:47:21;;;;;;;6.80;5.17;;;;;;;13.61;78.76;100294.17;3310009;85;21072;-93
2022/09/12 09:52:17;;;;;;;7.08;5.25;;;;;;;13.50;78.67;100290.69;3343365;83;21305;-92
2022/09/12 09:57:37;;;;;;;5.30;4.28;;;;;;;13.43;79.08;100291.57;3368108;83;21494;-89
2022/09/12 10:02:28;;;;;;;5.78;3.47;;;;;;;13.43;79.16;100299.41;3376403;83;20964;-88
2022/09/12 10:07:21;;;;;;;13.60;5.03;;;;;;;13.50;78.76;100301.13;3401720;80;21413;-90
2022/09/12 10:12:28;;;;;;;4.22;3.77;;;;;;;13.49;79.34;100303.33;3467408;81;21010;-91
2022/09/12 10:17:33;;;;;;;7.78;4.42;;;;;;;13.41;79.27;100309.84;3461682;80;21464;-90
2022/09/12 10:22:28;;;;;;;5.35;4.40;;;;;;;13.32;79.26;100321.20;3444688;80;21477;-88
2022/09/12 10:27:27;;;;;;;4.17;3.87;;;;;;;13.30;79.43;100320.27;3457375;82;20930;-85
2022/09/12 10:32:29;;;;;;;6.58;3.85;;;;;;;13.38;79.52;100316.81;3448854;80;21457;-86
2022/09/12 10:37:32;;;;;;;5.08;3.40;;;;;;;13.50;79.35;100322.03;3476043;80;20927;-87
2022/09/12 10:42:50;;;;;;;4.20;3.70;;;;;;;13.47;79.37;100324.67;3419952;82;22098;-89
2022/09/12 10:47:41;;;;;;;6.40;4.28;;;;;;;13.34;78.93;100335.12;3480337;80;21065;-84
2022/09/12 10:52:33;;;;;;;5.65;3.60;;;;;;;13.37;79.17;100338.15;3473884;80;20998;-83
2022/09/12 10:57:54;;;;;;;5.08;4.35;;;;;;;13.65;79.20;100333.77;3451134;80;20947;-85
2022/09/12 11:03:07;;;;;;;6.37;4.50;;;;;;;13.92;78.37;100335.89;3391635;82;21012;-87
2022/09/12 11:08:04;;;;;;;7.05;4.33;;;;;;;13.88;77.83;100340.25;3457394;81;21493;-84
2022/09/12 11:13:28;;;;;;;6.10;3.45;;;;;;;14.02;77.38;100341.94;3447379;80;20880;-84
2022/09/12 11:19:04;;;;;;;5.62;3.47;;;;;;;14.23;77.22;100341.00;3484106;79;20966;-87
2022/09/12 11:24:19;;;;;;;4.28;3.22;;;;;;;14.47;77.05;100339.59;3472351;80;20959;-88
2022/09/12 11:29:47;;;;;;;4.10;3.70;;;;;;;14.54;76.92;100349.59;3461088;81;20997;-87
2022/09/12 11:35:02;;;;;;;4.30;3.90;;;;;;;14.37;76.90;100351.41;3427670;82;21529;-87
2022/09/12 11:39:55;;;;;;;3.80;3.35;;;;;;;14.08;76.90;100358.48;3470010;80;20943;-88
2022/09/12 11:45:03;;;;;;;4.65;4.10;;;;;;;13.92;77.03;100353.73;3453650;80;20951;-89
2022/09/12 11:49:55;;;;;;;;;;;;;;;13.90;76.85;100357.24;3469530;80;21009;-88
2022/09/12 11:55:13;;;;;;;4.10;3.70;;;;;;;14.13;76.82;100351.06;3445904;80;20108;-89
2022/09/12 12:00:18;;;;;;;4.90;3.60;;;;;;;14.20;76.75;100352.77;3490836;80;21196;-87
2022/09/12 12:05:50;;;;;;;3.37;3.10;;;;;;;14.07;77.09;100351.50;3383505;81;20956;-86
2022/09/12 12:10:49;;;;;;;5.50;3.80;;;;;;;13.96;77.05;100355.05;3453734;81;20958;-84
2022/09/12 12:15:47;;;;;;;6.75;3.80;;;;;;;13.79;77.02;100355.96;3493872;81;21018;-84
2022/09/12 12:20:39;;;;;;;7.40;3.72;;;;;;;13.74;77.30;100355.09;3408452;81;20979;-83
2022/09/12 12:25:56;;;;;;;6.42;3.80;;;;;;;13.82;77.19;100355.07;3443205;81;21276;-84
2022/09/12 12:30:56;;;;;;;3.98;3.65;;;;;;;14.01;77.11;100359.37;3394920;79;20948;-84
2022/09/12 12:36:02;;;;;;;3.95;3.60;;;;;;;14.33;76.60;100360.16;3464015;81;21105;-83
2022/09/12 12:40:53;;;;;;;4.65;4.20;;;;;;;14.37;76.39;100361.42;3439487;80;20955;-85
2022/09/12 12:45:47;;;;;;;9.38;5.80;;;;;;;14.28;76.19;100358.41;3433261;81;21005;-85
2022/09/12 12:50:39;;;;;;;4.33;3.67;;;;;;;14.35;76.33;100356.65;3426531;80;21948;-88
2022/09/12 12:55:40;;;;;;;4.35;3.55;;;;;;;14.62;75.93;100358.73;3392207;81;20968;-85
2022/09/12 13:00:35;;;;;;;4.00;3.42;;;;;;;14.73;75.94;100367.39;3482739;81;21689;-87
2022/09/12 13:05:31;;;;;;;6.58;5.90;;;;;;;14.60;75.62;100369.66;3408507;81;20991;-90
2022/09/12 13:10:28;;;;;;;4.90;4.15;;;;;;;14.47;76.03;100370.98;3407387;80;21033;-89
2022/09/12 13:15:43;;;;;;;5.40;3.60;;;;;;;14.39;75.63;100372.75;3382987;81;20929;-87
2022/09/12 13:20:51;;;;;;;6.15;5.03;;;;;;;14.34;75.69;100374.95;3476625;80;21065;-87
2022/09/12 13:25:46;;;;;;;8.73;5.85;;;;;;;14.39;75.83;100377.98;3406149;82;20975;-90
2022/09/12 13:30:59;;;;;;;12.35;9.65;;;;;;;14.57;75.86;100377.47;3357572;83;21537;-93
2022/09/12 13:36:08;;;;;;;4.90;4.28;;;;;;;14.64;75.66;100370.06;3353166;82;21366;-87
2022/09/12 13:41:08;;;;;;;6.28;4.20;;;;;;;14.70;75.06;100370.02;3364845;83;22512;-84
2022/09/12 13:45:59;;;;;;;6.25;4.95;;;;;;;14.75;74.92;100369.55;3320704;83;21099;-86
2022/09/12 13:51:00;;;;;;;4.83;4.20;;;;;;;14.90;74.67;100366.41;3236614;84;21005;-84
2022/09/12 13:56:00;;;;;;;5.12;4.22;;;;;;;14.95;74.77;100367.25;3351792;83;21062;-85
2022/09/12 14:01:08;;;;;;;5.12;4.55;;;;;;;14.79;74.19;100370.41;3337177;80;21015;-85
2022/09/12 14:06:00;;;;;;;6.37;5.03;;;;;;;14.71;73.96;100372.21;3393839;80;21220;-85
2022/09/12 14:10:51;;;;;;;5.65;4.78;;;;;;;14.63;74.22;100381.39;3377044;82;20937;-85
2022/09/12 14:15:49;;;;;;;8.00;6.42;;;;;;;14.58;74.30;100384.49;3412805;82;21450;-92
2022/09/12 14:20:41;;;;;;;9.18;8.23;;;;;;;14.58;73.98;100384.49;3422621;80;21454;-91
2022/09/12 14:25:46;;;;;;;6.55;5.95;;;;;;;14.59;74.22;100380.98;3473784;80;21294;-84
2022/09/12 14:30:36;;;;;;;6.60;6.00;;;;;;;14.54;73.94;100384.02;3485209;80;21302;-87
2022/09/12 14:35:31;;;;;;;4.25;3.67;;;;;;;14.48;74.19;100379.24;3483687;80;21592;-85
2022/09/12 14:40:23;;;;;;;11.60;9.43;;;;;;;14.42;74.22;100381.90;3430352;80;21022;-82
2022/09/12 14:45:19;;;;;;;4.58;4.17;;;;;;;14.32;73.92;100390.65;3412600;81;20975;-82
2022/09/12 14:50:25;;;;;;;4.55;4.15;;;;;;;14.28;74.29;100393.71;3440684;81;21512;-90
2022/09/12 14:55:22;;;;;;;7.22;6.60;;;;;;;14.23;74.42;100390.69;3421661;80;20995;-90
2022/09/12 15:00:19;;;;;;;17.32;11.90;;;;;;;14.16;74.38;100392.44;3472377;80;20975;-82
2022/09/12 15:05:16;;;;;;;7.12;6.00;;;;;;;14.11;74.43;100392.47;3436516;80;21509;-83
2022/09/12 15:10:30;;;;;;;12.15;8.60;;;;;;;14.06;74.53;100392.05;3437833;81;21433;-83
2022/09/12 15:15:21;;;;;;;13.80;9.05;;;;;;;14.02;74.79;100394.22;3518474;80;20899;-83
2022/09/12 15:20:13;;;;;;;6.60;6.00;;;;;;;13.99;74.75;100395.11;3432541;80;22139;-82
2022/09/12 15:25:06;;;;;;;16.62;8.65;;;;;;;13.96;74.66;100402.95;3408749;80;20960;-82
2022/09/12 15:29:57;;;;;;;15.83;9.75;;;;;;;13.92;74.72;100393.39;3439012;80;20931;-82
2022/09/12 15:34:49;;;;;;;26.27;18.05;;;;;;;13.88;74.85;100395.58;3430121;80;20962;-83
2022/09/12 15:39:40;;;;;;;16.48;10.70;;;;;;;13.86;74.78;100402.52;3440819;80;20954;-83
2022/09/12 15:44:31;;;;;;;15.30;10.98;;;;;;;13.82;74.85;100404.27;3506618;80;21222;-83
2022/09/12 15:49:22;;;;;;;20.37;12.95;;;;;;;13.81;75.11;100401.24;3480418;80;21523;-83
2022/09/12 15:54:16;;;;;;;74.00;30.57;;;;;;;13.78;75.42;100411.69;3457928;80;20900;-83
2022/09/12 15:59:07;;;;;;;56.05;22.77;;;;;;;13.76;75.17;100415.19;3440235;80;20975;-83
2022/09/12 16:03:58;;;;;;;24.98;13.88;;;;;;;13.71;75.46;100418.66;3418865;80;21006;-84
2022/09/12 16:08:49;;;;;;;12.45;8.50;;;;;;;13.67;75.67;100414.31;3449709;80;21783;-83
2022/09/12 16:13:40;;;;;;;63.90;26.97;;;;;;;13.63;75.90;100412.58;3443762;80;21610;-83
2022/09/12 16:18:32;;;;;;;54.80;25.10;;;;;;;13.58;76.23;100416.94;3401181;80;21416;-83
2022/09/12 16:23:24;;;;;;;33.13;18.57;;;;;;;13.54;76.14;100411.28;3424482;80;20977;-83
2022/09/12 16:28:15;;;;;;;25.62;13.75;;;;;;;13.49;76.31;100415.19;3408421;80;20933;-83
2022/09/12 16:33:11;;;;;;;22.67;12.30;;;;;;;13.44;76.41;100422.14;3461207;80;21189;-83
2022/09/12 16:38:00;;;;;;;12.68;7.95;;;;;;;13.41;76.50;100418.66;3405163;80;21050;-83
2022/09/12 16:42:51;;;;;;;6.25;5.65;;;;;;;13.37;76.78;100407.79;3432752;81;21472;-83
2022/09/12 16:47:46;;;;;;;6.33;5.17;;;;;;;13.30;76.99;100412.95;3502434;80;22258;-83
2022/09/12 16:52:37;;;;;;;8.13;5.35;;;;;;;13.25;77.16;100417.33;3446652;80;21915;-83
2022/09/12 16:57:28;;;;;;;8.48;6.62;;;;;;;13.21;77.29;100409.03;3493184;80;21289;-83
2022/09/12 17:02:20;;;;;;;7.28;5.37;;;;;;;13.16;77.39;100406.44;3503236;80;21037;-83
2022/09/12 17:07:11;;;;;;;8.98;6.03;;;;;;;13.15;77.64;100418.17;3405237;80;21039;-83
2022/09/12 17:12:03;;;;;;;12.30;7.37;;;;;;;13.10;77.75;100414.69;3444383;81;20985;-84
2022/09/12 17:16:54;;;;;;;9.30;6.55;;;;;;;13.06;77.77;100416.86;3431192;81;21507;-84
2022/09/12 17:21:47;;;;;;;9.38;6.92;;;;;;;13.05;77.95;100415.10;3419380;82;22411;-84
2022/09/12 17:26:39;;;;;;;8.68;5.97;;;;;;;13.01;77.92;100418.59;3350365;82;21000;-84
2022/09/12 17:31:31;;;;;;;8.63;6.83;;;;;;;12.97;78.07;100418.57;3364810;82;20961;-84
2022/09/12 17:36:23;;;;;;;8.93;7.30;;;;;;;12.92;78.23;100425.51;3364066;82;20989;-84
2022/09/12 17:41:22;;;;;;;8.05;7.25;;;;;;;12.88;78.39;100432.91;3362206;82;20998;-84
2022/09/12 17:46:13;;;;;;;10.53;7.47;;;;;;;12.87;78.79;100429.84;3438055;80;21306;-84
2022/09/12 17:51:14;;;;;;;8.73;6.75;;;;;;;12.86;78.96;100425.51;3363445;81;21021;-85
2022/09/12 17:56:07;;;;;;;8.95;6.75;;;;;;;12.84;78.94;100426.35;3388834;81;20940;-84
2022/09/12 18:06:23;;;;;;;8.18;7.15;;;;;;;12.77;79.26;100427.65;3441409;81;21020;-84
2022/09/12 18:11:15;;;;;;;10.65;7.37;;;;;;;12.73;79.40;100427.63;3477117;80;21532;-84
2022/09/12 18:16:10;;;;;;;9.83;7.10;;;;;;;12.70;79.42;100425.02;3464027;80;20983;-84
2022/09/12 18:21:04;;;;;;;9.50;7.33;;;;;;;12.68;79.44;100425.42;3448317;80;21069;-85
2022/09/12 18:26:05;;;;;;;10.60;7.20;;;;;;;12.67;79.42;100428.92;3410487;80;20968;-85
2022/09/12 18:30:57;;;;;;;9.03;6.70;;;;;;;12.65;79.63;100426.74;3510834;79;20990;-84
2022/09/12 18:35:48;;;;;;;13.05;8.00;;;;;;;12.62;79.75;100428.02;3450177;80;20981;-84
2022/09/12 18:40:39;;;;;;;10.45;7.33;;;;;;;12.56;79.92;100427.13;3442927;81;20919;-84
2022/09/12 18:45:30;;;;;;;10.20;7.30;;;;;;;12.53;79.98;100424.94;3416082;80;21537;-84
2022/09/12 18:50:23;;;;;;;11.23;8.17;;;;;;;12.45;79.98;100431.44;3402084;80;21054;-85
2022/09/12 18:55:14;;;;;;;11.43;7.50;;;;;;;12.36;80.04;100429.66;3399728;80;21118;-84
2022/09/12 19:00:07;;;;;;;12.47;8.00;;;;;;;12.30;80.13;100426.13;3431585;80;21452;-85
2022/09/12 19:04:59;;;;;;;10.53;6.78;;;;;;;12.23;80.20;100426.97;3477841;80;20971;-84
2022/09/12 19:09:50;;;;;;;20.68;8.03;;;;;;;12.16;80.20;100421.73;3395539;82;20935;-84
2022/09/12 19:14:41;;;;;;;8.83;7.62;;;;;;;12.09;80.18;100422.56;3325316;82;21000;-85
2022/09/12 19:19:32;;;;;;;10.65;8.40;;;;;;;12.05;80.24;100423.37;3321697;83;21137;-84
2022/09/12 19:24:24;;;;;;;10.85;8.05;;;;;;;12.01;80.33;100419.02;3447079;80;22212;-84
2022/09/12 19:29:15;;;;;;;9.13;7.33;;;;;;;11.96;80.33;100420.28;3411461;80;21490;-84
2022/09/12 19:34:07;;;;;;;13.00;7.72;;;;;;;11.95;80.52;100418.99;3357228;81;21030;-84
2022/09/12 19:38:59;;;;;;;8.78;6.95;;;;;;;11.93;80.53;100419.39;3438715;80;21169;-84
2022/09/12 19:43:50;;;;;;;7.95;6.28;;;;;;;11.88;80.81;100418.48;3439411;80;22721;-84
2022/09/12 19:48:41;;;;;;;9.15;7.45;;;;;;;11.82;80.84;100427.09;3438951;80;21192;-84
2022/09/12 19:53:32;;;;;;;10.30;7.08;;;;;;;11.80;81.06;100416.69;3440436;81;21521;-84
2022/09/12 19:58:24;;;;;;;10.10;9.10;;;;;;;11.81;81.07;100409.30;3479432;80;20990;-83
2022/09/12 20:03:15;;;;;;;9.40;8.25;;;;;;;11.85;81.24;100415.84;3436735;80;20990;-84
2022/09/12 20:08:06;;;;;;;8.63;7.72;;;;;;;11.86;81.20;100420.17;3478573;80;21002;-83
2022/09/12 20:12:57;;;;;;;9.10;8.10;;;;;;;11.80;81.04;100423.20;3397757;82;21138;-83
2022/09/12 20:17:54;;;;;;;13.45;9.53;;;;;;;11.69;81.00;100414.42;3389613;81;20978;-84
2022/09/12 20:22:52;;;;;;;14.35;10.28;;;;;;;11.60;81.16;100409.14;3354211;82;20956;-83
2022/09/12 20:27:43;;;;;;;15.40;12.93;;;;;;;11.50;80.93;100415.12;3352894;82;21072;-83
2022/09/12 20:32:34;;;;;;;15.50;12.93;;;;;;;11.41;81.10;100407.70;3411781;80;20987;-83
2022/09/12 20:37:25;;;;;;;13.48;11.53;;;;;;;11.38;81.15;100406.36;3347437;82;21195;-84
2022/09/12 20:42:17;;;;;;;16.25;11.30;;;;;;;11.33;80.97;100412.39;3385758;81;20990;-83
2022/09/12 20:47:08;;;;;;;17.85;13.40;;;;;;;11.20;80.89;100406.21;3404510;80;20986;-83
2022/09/12 20:52:00;;;;;;;13.25;11.93;;;;;;;11.08;80.80;100411.29;3386797;81;20975;-83
2022/09/12 20:56:51;;;;;;;16.60;13.00;;;;;;;11.01;80.92;100405.14;3394169;81;20943;-84
2022/09/12 21:01:42;;;;;;;12.78;9.98;;;;;;;10.92;80.87;100409.81;3417785;80;21016;-84
2022/09/12 21:06:34;;;;;;;12.63;10.13;;;;;;;10.78;80.41;100417.46;3444323;81;22407;-83
2022/09/12 21:11:27;;;;;;;11.65;10.43;;;;;;;10.66;80.56;100416.91;3440400;80;20951;-83
2022/09/12 21:16:20;;;;;;;13.00;10.08;;;;;;;10.53;80.85;100409.80;3402470;81;21097;-83
2022/09/12 21:21:14;;;;;;;12.40;9.88;;;;;;;10.53;80.85;100409.80;3379446;80;20999;-83
2022/09/12 21:26:09;;;;;;;10.28;9.13;;;;;;;10.47;80.53;100407.14;3381529;80;21189;-83
2022/09/12 21:30:59;;;;;;;11.22;10.13;;;;;;;10.45;80.76;100406.25;3403654;80;21015;-83
2022/09/12 21:35:51;;;;;;;10.20;8.63;;;;;;;10.39;80.55;100411.36;3414054;80;20998;-83
2022/09/12 21:40:42;;;;;;;14.73;10.35;;;;;;;10.38;80.87;100408.33;3386302;81;21058;-83
2022/09/12 21:45:34;;;;;;;11.88;10.68;;;;;;;10.38;80.87;100408.33;3397362;80;21496;-83
2022/09/12 21:50:27;;;;;;;11.93;9.00;;;;;;;10.40;80.84;100411.81;3364795;80;21319;-83
2022/09/12 21:55:19;;;;;;;13.10;10.75;;;;;;;10.38;80.98;100407.03;3401149;81;21969;-83
2022/09/12 22:00:16;;;;;;;11.65;10.43;;;;;;;10.38;80.98;100407.03;3403671;80;21046;-83
2022/09/12 22:05:09;;;;;;;14.05;10.05;;;;;;;10.41;81.11;100405.75;3391954;81;20948;-83
2022/09/12 22:10:00;;;;;;;12.18;10.65;;;;;;;10.42;81.02;100401.01;3303658;82;20992;-83
2022/09/12 22:14:53;;;;;;;13.85;9.38;;;;;;;10.42;81.02;100401.01;3293581;83;21461;-83
2022/09/12 22:19:44;;;;;;;14.30;11.22;;;;;;;10.39;81.08;100393.16;3278304;83;21035;-83
2022/09/12 22:24:39;;;;;;;12.43;10.30;;;;;;;10.35;81.12;100395.29;3297699;83;46950;-83
2022/09/12 22:29:30;;;;;;;15.72;9.80;;;;;;;10.32;81.12;100393.94;3325335;83;20976;-83
2022/09/12 22:34:21;;;;;;;12.53;9.68;;;;;;;10.26;81.13;100390.38;3356856;84;20984;-83
2022/09/12 22:39:12;;;;;;;12.50;10.13;;;;;;;10.25;81.12;100388.65;3354333;84;21154;-83
2022/09/12 22:44:03;;;;;;;10.13;9.03;;;;;;;10.20;81.17;100389.01;3307036;84;21001;-83
2022/09/12 22:48:55;;;;;;;11.10;10.00;;;;;;;10.16;81.18;100388.53;3240979;84;20973;-83
2022/09/12 22:53:46;;;;;;;9.90;8.88;;;;;;;10.08;81.10;100384.51;3270536;84;20941;-83
2022/09/12 22:58:37;;;;;;;11.03;8.68;;;;;;;10.04;81.25;100384.03;3374554;84;21159;-83